• Join FlightAware (Why Join?)
  • Login
  • US Flag 
09:04AM EDT


 

Airport Tracker/Info


-or-


 

Live Flight TrackerFlight Track Log ✈ N214MS ✈ 05-May-2013 ✈ KSDL - KIWS

Flight Track Log - Related Links

Times and Time Zones

All times are in EDT time to prevent confusion due to time zone crossing. See the N214MS flight status page for this flight to view local times or setup timezone preferences in your user account.

Time Position Orientation Groundspeed Altitude Reporting Facility
EDT Latitude Longitude Course Direction KTS MPH feet Rate Location/Type
04:10PM 33.6167 -111.9167 272° West 125 144 2,100  Level Phoenix TRACON
04:10PM 33.6178 -111.9478 272° West 156 180 3,200 1,620 Climbing Albuquerque Center
04:11PM 33.6753 -111.9436 North 213 245 5,000 2,460 Climbing Albuquerque Center
04:12PM 33.6747 -111.8767 91° East 217 250 8,400 3,000 Climbing Albuquerque Center
04:13PM 33.6514 -111.8333 123° Southeast 160 184 11,300 2,340 Climbing Albuquerque Center
04:14PM 33.6283 -111.7861 120° Southeast 163 188 13,300 1,980 Climbing Albuquerque Center
04:15PM 33.6003 -111.7306 121° Southeast 190 219 15,400 2,160 Climbing Albuquerque Center
04:16PM 33.5717 -111.6553 115° Southeast 215 247 17,800 1,860 Climbing Albuquerque Center
04:17PM 33.5689 -111.5794 92° East 231 266 19,300 1,380 Climbing Albuquerque Center
04:18PM 33.5617 -111.5011 96° East 237 273 20,700 1,320 Climbing Albuquerque Center
04:20PM 33.5467 -111.4217 103° East 245 282 22,100 1,200 Climbing Albuquerque Center
04:21PM 33.5322 -111.3364 101° East 260 299 23,300 1,200 Climbing Albuquerque Center
04:22PM 33.5172 -111.2486 102° East 268 308 24,600 1,320 Climbing Albuquerque Center
04:24PM 33.4828 -111.0419 101° East 292 336 27,400 1,260 Climbing Albuquerque Center
04:25PM 33.4664 -110.9453 101° East 296 341 28,600 1,140 Climbing Albuquerque Center
04:26PM 33.4508 -110.8439 100° East 307 353 29,800 1,020 Climbing Albuquerque Center
04:27PM 33.4319 -110.7414 102° East 314 361 30,800 960 Climbing Albuquerque Center
04:28PM 33.4128 -110.6289 102° East 323 372 31,900 960 Climbing Albuquerque Center
04:29PM 33.3936 -110.5186 102° East 336 387 32,800 600 Climbing Albuquerque Center
04:30PM 33.3739 -110.4042 102° East 350 403 33,200 1,020 Climbing Albuquerque Center
04:31PM 33.3497 -110.2653 102° East 357 411 35,000 840 Climbing Albuquerque Center
04:32PM 33.3283 -110.1494 102° East 358 412 35,000  Level Albuquerque Center
04:33PM 33.3042 -110.0200 103° East 395 455 35,000  Level Albuquerque Center
04:34PM 33.2794 -109.8883 103° East 407 468 35,000  Level Albuquerque Center
04:35PM 33.2547 -109.7522 102° East 419 482 35,000  Level Albuquerque Center
04:36PM 33.2253 -109.5867 102° East 426 490 35,000  Level Albuquerque Center
04:37PM 33.1997 -109.4472 102° East 432 497 35,000  Level Albuquerque Center
04:38PM 33.1736 -109.3058 102° East 437 503 35,000  Level Albuquerque Center
04:39PM 33.1478 -109.1644 102° East 438 504 35,000  Level Albuquerque Center
04:40PM 33.1192 -109.0050 102° East 444 511 35,000  Level Albuquerque Center
04:41PM 33.0919 -108.8633 103° East 441 507 35,000  Level Albuquerque Center
04:42PM 33.0669 -108.7297 103° East 440 506 35,000  Level Albuquerque Center
04:43PM 33.0342 -108.5603 103° East 439 505 35,000  Level Albuquerque Center
04:44PM 33.0069 -108.4189 103° East 440 506 35,000  Level Albuquerque Center
04:45PM 32.9789 -108.2792 103° East 439 505 35,000  Level Albuquerque Center
04:46PM 32.9486 -108.1272 103° East 439 505 35,000  Level Albuquerque Center
04:47PM 32.9211 -107.9842 103° East 442 509 35,000  Level Albuquerque Center
04:48PM 32.8928 -107.8425 103° East 442 509 35,000  Level Albuquerque Center
04:49PM 32.8636 -107.6994 104° East 444 511 35,000  Level Albuquerque Center
04:50PM 32.8364 -107.5569 103° East 442 509 35,000  Level Albuquerque Center
04:52PM 32.8072 -107.4147 104° East 441 507 35,000  Level Albuquerque Center
04:53PM 32.7733 -107.2444 103° East 439 505 35,000  Level Albuquerque Center
04:54PM 32.7453 -107.1019 103° East 437 503 35,000  Level Albuquerque Center
04:55PM 32.7169 -106.9583 103° East 440 506 35,000  Level Albuquerque Center
04:57PM 32.6575 -106.6742 104° East 441 507 35,000  Level Albuquerque Center
04:58PM 32.6286 -106.5342 104° East 437 503 35,000  Level Albuquerque Center
04:59PM 32.5972 -106.3939 105° East 439 505 35,000  Level Albuquerque Center
05:00PM 32.5656 -106.2372 103° East 442 509 35,000  Level Albuquerque Center
05:01PM 32.5350 -106.0969 104° East 441 507 35,000  Level Albuquerque Center
05:02PM 32.4994 -105.9336 104° East 440 506 35,000  Level Albuquerque Center
05:03PM 32.4744 -105.8183 104° East 437 503 35,000  Level Albuquerque Center
05:04PM 32.4392 -105.6494 104° East 440 506 35,000  Level Albuquerque Center
05:05PM 32.4092 -105.5108 104° East 437 503 35,000  Level Albuquerque Center
05:06PM 32.3781 -105.3708 105° East 439 505 35,000  Level Albuquerque Center
05:07PM 32.3475 -105.2322 105° East 437 503 35,000  Level Albuquerque Center
05:08PM 32.3156 -105.0931 105° East 437 503 35,000  Level Albuquerque Center
05:09PM 32.2858 -104.9550 104° East 436 502 35,000  Level Albuquerque Center
05:10PM 32.2547 -104.8164 105° East 435 501 35,000  Level Albuquerque Center
05:11PM 32.2169 -104.6478 105° East 440 506 35,000  Level Albuquerque Center
05:12PM 32.1842 -104.5061 105° East 445 512 35,000  Level Albuquerque Center
05:13PM 32.1533 -104.3678 105° East 440 506 35,000  Level Albuquerque Center
05:15PM 32.0914 -104.1019 105° East 431 496 35,000  Level Fort Worth Center
05:16PM 32.0611 -103.9675 105° East 431 496 35,000  Level Fort Worth Center
05:17PM 32.0244 -103.8275 107° East 431 496 35,000  Level Fort Worth Center
05:18PM 31.9939 -103.6908 105° East 431 496 35,000  Level Fort Worth Center
05:19PM 31.9608 -103.5344 104° East 435 501 35,000  Level Albuquerque Center
05:20PM 31.9211 -103.3700 106° East 437 503 35,000  Level Albuquerque Center
05:21PM 31.8889 -103.2336 106° East 435 501 35,000  Level Albuquerque Center
05:22PM 31.8589 -103.1067 106° East 435 501 35,000  Level Albuquerque Center
05:24PM 31.8181 -102.9431 106° East 435 501 35,000  Level Albuquerque Center
05:25PM 31.7850 -102.8047 106° East 438 504 35,000  Level Albuquerque Center
05:26PM 31.7517 -102.6683 106° East 436 502 35,000  Level Albuquerque Center
05:27PM 31.7178 -102.5306 106° East 436 502 35,000  Level Albuquerque Center
05:27PM 31.6992 -102.4428 104° East 431 496 35,000  Level Fort Worth Center
05:28PM 31.6631 -102.3019 107° East 431 496 35,000  Level Fort Worth Center
05:29PM 31.6308 -102.1658 106° East 431 496 35,000  Level Fort Worth Center
05:30PM 31.5961 -102.0275 106° East 436 502 35,000  Level Fort Worth Center
05:32PM 31.5408 -101.8097 107° East 438 504 35,000  Level Houston Center
05:33PM 31.4975 -101.6461 107° East 438 504 35,000  Level Houston Center
05:34PM 31.4622 -101.5092 107° East 438 504 35,000  Level Houston Center
05:35PM 31.4394 -101.3706 101° East 435 501 35,000  Level Houston Center
05:36PM 31.4197 -101.2292 99° East 438 504 35,000  Level Houston Center
05:38PM 31.3915 -101.0558 101° East  Level FlightAware Approximate
05:38PM 31.3775 -100.9544 101° East 435 501 35,000  Level Houston Center
05:39PM 31.3511 -100.7872 100° East 436 502 35,000  Level Houston Center
05:40PM 31.3297 -100.6458 100° East 439 505 35,000  Level Houston Center
05:41PM 31.3100 -100.5064 99° East 436 502 35,000  Level Houston Center
05:42PM 31.2881 -100.3667 100° East 437 503 35,000  Level Houston Center
05:43PM 31.2656 -100.2275 101° East 436 502 35,000  Level Houston Center
05:44PM 31.2428 -100.0883 101° East 435 501 35,000  Level Houston Center
05:45PM 31.2208 -99.9478 100° East 437 503 35,000  Level Houston Center
05:47PM 31.1840 -99.8158 100° East  Level FlightAware Approximate
05:47PM 31.1717 -99.6414 100° East 437 503 35,000  Level Houston Center
05:48PM 31.1494 -99.5025 101° East 436 502 35,000  Level Houston Center
05:50PM 31.1253 -99.3628 101° East 438 504 35,000  Level Houston Center
05:51PM 31.1022 -99.2236 101° East 436 502 35,000  Level Houston Center
05:52PM 31.0783 -99.0800 101° East 437 503 35,000  Level Houston Center
05:53PM 31.0506 -98.9175 101° East 436 502 35,000  Level Houston Center
05:54PM 31.0275 -98.7772 101° East 437 503 35,000  Level Houston Center
05:55PM 31.0044 -98.6375 101° East 436 502 35,000  Level Houston Center
05:56PM 30.9800 -98.4969 101° East 438 504 35,000  Level Houston Center
05:57PM 30.9544 -98.3561 102° East 440 506 35,000  Level Houston Center
05:58PM 30.9308 -98.2158 101° East 439 505 35,000  Level Houston Center
06:00PM 30.8900 -98.0135 103° East  Level FlightAware Approximate
06:01PM 30.8508 -97.7731 103° East 438 504 35,000  Level Houston Center
06:02PM 30.8103 -97.6392 109° East 440 506 35,000 -120 Level Houston Center
06:03PM 30.7586 -97.5094 115° Southeast 442 509 34,800 -780 Descending Houston Center
06:04PM 30.7092 -97.3797 114° Southeast 440 506 33,400 -1,440 Descending Houston Center
06:05PM 30.6553 -97.2308 113° Southeast 431 496 31,900 -1,860 Descending Houston Center
06:06PM 30.6067 -97.1028 114° Southeast 432 497 29,600 -2,280 Descending Houston Center
06:07PM 30.5614 -96.9794 113° Southeast 416 479 27,200 -2,400 Descending Houston Center
06:08PM 30.5167 -96.8619 114° Southeast 398 458 24,700 -2,580 Descending Houston Center
06:09PM 30.4814 -96.7753 115° Southeast 381 438 22,800 -2,400 Descending Houston Center
06:10PM 30.4517 -96.6936 113° Southeast 382 440 21,400 -1,740 Descending Houston Center
06:10PM 30.4278 -96.6283 113° Southeast 402 463 20,400 -2,580 Descending Houston Center
06:11PM 30.4061 -96.5728 114° Southeast 415 478 18,800 -5,040 Descending Houston Center
06:11PM 30.3761 -96.4906 113° Southeast 390 449 15,200 -5,160 Descending Houston Center
06:12PM 30.3608 -96.4567 118° Southeast 375 432 13,600 -4,320 Descending Houston Center
06:13PM 30.3236 -96.3594 114° Southeast 336 387 9,300 -3,180 Descending Houston Center
06:13PM 30.2900 -96.3058 126° Southeast 296 341 8,100 -1,620 Descending Houston Center
06:14PM 30.2675 -96.2906 150° Southeast 260 299 7,700 -1,080 Descending Houston Center
06:14PM 30.2228 -96.2703 159° South 263 303 7,000 -720 Descending Houston Center
06:15PM 30.1936 -96.2603 163° South 279 321 7,000  Level Houston Center
06:15PM 30.1467 -96.2422 162° South 279 321 7,000  Level Houston Center
06:16PM 30.1197 -96.2322 162° South 285 328 7,000  Level Houston Center
06:16PM 30.0694 -96.2119 161° South 287 330 7,000 -120 Level Houston Center
06:17PM 30.0411 -96.1953 153° Southeast 302 348 6,900 -600 Descending Houston Center
06:17PM 30.0028 -96.1492 134° Southeast 313 360 6,400 -1,200 Descending Houston Center
06:18PM 29.9808 -96.0550 105° East 300 345 4,800 -1,320 Descending Houston Center
06:20PM 29.9750 -95.9600 94° East 269 310 3,700 -720 Descending Houston Center
06:21PM 29.9678 -95.8564 95° East 256 295 3,200 -480 Descending Houston Center
06:22PM 29.9669 -95.7994 91° East 250 288 2,800 -660 Descending Houston Center
06:23PM 29.9289 -95.7336 124° Southeast 236 272 2,000 -780 Descending Houston Center
06:25PM 29.8167 -95.6667 103° East  Level FlightAware Approximate
06:32PM 29.8182 -95.6726 103° East  Level Estimated
06:33PM 29.8167 -95.6667 103° East  Level FlightAware Approximate